Darana R — WBG6169 — position and weather

sailwx.info

Track history (hours):
 
Tides and Currents Weather Stations Pressure Air Temp Water Temp Dewpoint Dewpoint Depression Visibility Wind Speed Wind Dir Waves Ship Positions

Darana R

Owner: DARANA R INC, WANCHESE, NC. More information available from US FCC via Universal Licensing System and Coast Guard Vessel Documentation Center.

Last reported at 2018-May-23 14:17 UTC. Time now 2018-Jun-24 22:33 UTC.
Position N 39°51' W 074°02'.
Warning: this ship's position is 32 days out of date.

Length 27 m.

Type: Fishing. MMSI: 367174730.

Date/timePositionNaut miles runAvg speedWind from/ knotsBaromVisibWave heightAir tempDewpointWater temp
2018-May-23 14:17N 39°51' W 074°02'1 2.8
2018-May-23 13:59N 39°52' W 074°02'4 5.4
2018-May-23 13:15N 39°48' W 074°02'0 1.0
2018-May-23 13:00N 39°48' W 074°02'2 3.4
2018-May-23 12:30N 39°46' W 074°04'1 1.7
2018-May-23 12:00N 39°46' W 074°04'3 6.1
2018-May-23 11:30N 39°43' W 074°05'3 0.3
2018-May-23 02:13N 39°41' W 074°08'0 0.0
2018-May-23 01:55N 39°41' W 074°08'1 2.4
2018-May-23 01:29N 39°40' W 074°08'4 8.7
2018-May-23 00:59N 39°35' W 074°10'28 2.6
2018-May-22 14:13N 39°15' W 074°35'0 1.8
2018-May-22 13:58N 39°15' W 074°34'1 1.2
2018-May-22 13:24N 39°15' W 074°35'0 0.6
2018-May-22 12:57N 39°15' W 074°35'2 3.1
2018-May-22 12:28N 39°13' W 074°36'4 8.1
2018-May-22 11:59N 39°10' W 074°37'4 8.0
2018-May-22 11:30N 39°06' W 074°40'4 8.1
2018-May-22 11:00N 39°03' W 074°43'1 1.6
2018-May-22 10:30N 39°04' W 074°43'3 5.8
2018-May-22 10:00N 39°05' W 074°39'2 3.3
2018-May-22 09:29N 39°05' W 074°37'0 0.3
2018-May-22 08:59N 39°05' W 074°37'0 0.3
2018-May-22 08:26N 39°05' W 074°37'0 0.3
2018-May-22 07:59N 39°05' W 074°37'0 0.3
2018-May-22 07:26N 39°05' W 074°37'0 0.3
2018-May-22 06:53N 39°05' W 074°37'0 0.2
2018-May-22 06:29N 39°06' W 074°37'0 0.2
2018-May-22 05:56N 39°06' W 074°37'0 0.2
2018-May-22 05:26N 39°06' W 074°37'0 0.2
2018-May-22 04:59N 39°06' W 074°37'0 0.3
2018-May-22 04:29N 39°06' W 074°37'0 0.4
2018-May-22 03:59N 39°06' W 074°36'0 0.4
2018-May-22 03:17N 39°06' W 074°36'0 0.4
2018-May-22 02:56N 39°06' W 074°36'0 0.4
2018-May-22 02:28N 39°06' W 074°36'0 0.4
2018-May-22 02:00N 39°06' W 074°35'1 2.4
2018-May-22 01:26N 39°06' W 074°34'0 0.3
2018-May-22 00:56N 39°06' W 074°33'1 1.3
2018-May-21 23:56N 39°06' W 074°32'22 1.6
2018-May-21 10:45N 38°55' W 074°56'2 2.6
2018-May-21 10:02N 38°54' W 074°53'0 0.0
2018-May-21 07:39N 38°54' W 074°53'  
2018-May-15 07:01N 37°39' W 075°22'0 0.1
2018-May-15 06:55N 37°39' W 075°22'0 0.1
2018-May-15 06:25N 37°39' W 075°22'  
Track history (hours):
 
Tides and Currents Weather Stations Pressure Air Temp Water Temp Dewpoint Dewpoint Depression Visibility Wind Speed Wind Dir Waves Ship Positions

Darana R

Owner: DARANA R INC, WANCHESE, NC. More information available from US FCC via Universal Licensing System and Coast Guard Vessel Documentation Center.

Last reported at 2018-May-23 14:17 UTC. Time now 2018-Jun-24 22:33 UTC.
Position N 39°51' W 074°02'.
Warning: this ship's position is 32 days out of date.

Length 27 m.

Type: Fishing. MMSI: 367174730.

Date/timePositionNaut miles runAvg speedWind from/ knotsBaromVisibWave heightAir tempDewpointWater temp
2018-May-23 14:17N 39°51' W 074°02'1 2.8
2018-May-23 13:59N 39°52' W 074°02'4 5.4
2018-May-23 13:15N 39°48' W 074°02'0 1.0
2018-May-23 13:00N 39°48' W 074°02'2 3.4
2018-May-23 12:30N 39°46' W 074°04'1 1.7
2018-May-23 12:00N 39°46' W 074°04'3 6.1
2018-May-23 11:30N 39°43' W 074°05'3 0.3
2018-May-23 02:13N 39°41' W 074°08'0 0.0
2018-May-23 01:55N 39°41' W 074°08'1 2.4
2018-May-23 01:29N 39°40' W 074°08'4 8.7
2018-May-23 00:59N 39°35' W 074°10'28 2.6
2018-May-22 14:13N 39°15' W 074°35'0 1.8
2018-May-22 13:58N 39°15' W 074°34'1 1.2
2018-May-22 13:24N 39°15' W 074°35'0 0.6
2018-May-22 12:57N 39°15' W 074°35'2 3.1
2018-May-22 12:28N 39°13' W 074°36'4 8.1
2018-May-22 11:59N 39°10' W 074°37'4 8.0
2018-May-22 11:30N 39°06' W 074°40'4 8.1
2018-May-22 11:00N 39°03' W 074°43'1 1.6
2018-May-22 10:30N 39°04' W 074°43'3 5.8
2018-May-22 10:00N 39°05' W 074°39'2 3.3
2018-May-22 09:29N 39°05' W 074°37'0 0.3
2018-May-22 08:59N 39°05' W 074°37'0 0.3
2018-May-22 08:26N 39°05' W 074°37'0 0.3
2018-May-22 07:59N 39°05' W 074°37'0 0.3
2018-May-22 07:26N 39°05' W 074°37'0 0.3
2018-May-22 06:53N 39°05' W 074°37'0 0.2
2018-May-22 06:29N 39°06' W 074°37'0 0.2
2018-May-22 05:56N 39°06' W 074°37'0 0.2
2018-May-22 05:26N 39°06' W 074°37'0 0.2
2018-May-22 04:59N 39°06' W 074°37'0 0.3
2018-May-22 04:29N 39°06' W 074°37'0 0.4
2018-May-22 03:59N 39°06' W 074°36'0 0.4
2018-May-22 03:17N 39°06' W 074°36'0 0.4
2018-May-22 02:56N 39°06' W 074°36'0 0.4
2018-May-22 02:28N 39°06' W 074°36'0 0.4
2018-May-22 02:00N 39°06' W 074°35'1 2.4
2018-May-22 01:26N 39°06' W 074°34'0 0.3
2018-May-22 00:56N 39°06' W 074°33'1 1.3
2018-May-21 23:56N 39°06' W 074°32'22 1.6
2018-May-21 10:45N 38°55' W 074°56'2 2.6
2018-May-21 10:02N 38°54' W 074°53'0 0.0
2018-May-21 07:39N 38°54' W 074°53'  
2018-May-15 07:01N 37°39' W 075°22'0 0.1
2018-May-15 06:55N 37°39' W 075°22'0 0.1
2018-May-15 06:25N 37°39' W 075°22'  

Dump ship's entire track history